Huvudsida
METAR-TAF:

METAR-TAF

Flygplatser :

Conakry International Airport

Conakry, Guinea

latitud: 09-34N, longitud: 013-37W, höjd: 26 m

Aktuellt väderrapport

Denna rapport gjordes för 43 minuter sedan, klockan 12:00 UTC
Vind 6 kt från väst/nordväst
Temperatur 31°C
Fuktighet 43%
Tryck 1012 hPa
Sikt: 5000 m
torrdis

METAR: GUCY 121200Z 29006KT 5000 HZ NSC 31/17 Q1012 NOSIG

Tid: 12:43 (12:43 UTC)

Väderprognos

Denna rapport gjordes för 1 timme och 43 minuter sedan, klockan 11:00 UTC
Prognos gäller från 12 kl. 12 UTC till 13 kl. 18 UTC
Vind 8 kt från väst/nordväst
Sikt: 5000 m
Få moln på en höjd av 1500 ft
torrdis
Blir
från 13 kl. 04 UTC till 13 kl. 09 UTC
Vind 2 kt varierande vindriktning
Sikt: 3000 m
fuktdis

TAF: GUCY 121100Z 1212/1318 30008KT 5000 HZ FEW015 BECMG 1304/1309 VRB02KT 3000 BR NSC

Aktuella väderrapporter och prognoser från 4000 flygplatser (METAR- och TAF-rapporter).

De tillgängliga stationerna syns som gula och röda prickar på kartan.

För musen över prickarna för att se namnen på stationerna.

Klicka sedan för att få väderrapporter och prognoser.

För att ändra kartan: Klicka på de gröna knapparna med ett svart kors på för att zooma in; den gröna knappen med ett streck på för att zooma ut; eller på de gröna pilarna för angränsande kartor.


METAR-TAF: